Time;durP1;ratioP1;P1;durP2;ratioP2;P2;SDS_P1;SDS_P2;PMS_P1;PMS_P2;Temp;Humidity;BMP_temperature;BMP_pressure;BME280_temperature;BME280_humidity;BME280_pressure;Samples;Min_cycle;Max_cycle;Signal;HPM_P1;HPM_P2
2024/01/24 00:01:10;;;;;;;17.10;7.70;;;;;;;5.75;63.34;99903.13;231711;198;153300;-58
2024/01/24 00:06:14;;;;;;;16.70;8.10;;;;;;;5.61;63.44;99888.02;231611;199;137384;-58
2024/01/24 00:11:17;;;;;;;19.80;8.20;;;;;;;5.45;63.46;99878.98;231834;199;138554;-59
2024/01/24 00:16:21;;;;;;;19.10;8.10;;;;;;;5.27;63.61;99868.58;231677;198;154397;-59
2024/01/24 00:21:24;;;;;;;19.10;7.80;;;;;;;5.09;63.72;99869.73;231674;204;138380;-59
2024/01/24 00:26:27;;;;;;;19.20;8.20;;;;;;;4.95;63.97;99871.18;231661;197;141629;-59
2024/01/24 00:31:30;;;;;;;16.90;8.40;;;;;;;4.76;64.08;99870.41;231680;205;153907;-58
2024/01/24 00:36:33;;;;;;;20.40;8.20;;;;;;;4.56;64.51;99864.23;231700;197;139247;-58
2024/01/24 00:41:40;;;;;;;21.30;8.30;;;;;;;4.40;64.94;99849.14;231632;198;138314;-56
2024/01/24 00:46:43;;;;;;;18.00;7.90;;;;;;;4.29;65.22;99843.27;231613;198;153200;-56
2024/01/24 00:51:46;;;;;;;20.40;8.20;;;;;;;4.19;65.45;99830.51;231716;202;138991;-56
2024/01/24 00:56:50;;;;;;;17.40;8.20;;;;;;;4.07;65.81;99814.10;231612;202;137234;-58
2024/01/24 01:01:53;;;;;;;17.40;8.40;;;;;;;3.95;66.06;99810.68;231611;201;155104;-58
2024/01/24 01:06:56;;;;;;;18.80;7.70;;;;;;;3.90;66.05;99807.11;231597;198;140194;-58
2024/01/24 01:11:59;;;;;;;21.90;7.90;;;;;;;3.85;66.15;99808.45;231754;198;138274;-58
2024/01/24 01:17:03;;;;;;;20.10;8.10;;;;;;;3.91;66.43;99809.90;231688;198;153314;-58
2024/01/24 01:22:06;;;;;;;17.10;8.20;;;;;;;4.09;66.42;99810.03;231642;198;153077;-58
2024/01/24 01:27:09;;;;;;;19.70;8.30;;;;;;;4.28;66.21;99821.16;231684;197;137596;-58
2024/01/24 01:32:12;;;;;;;18.20;8.70;;;;;;;4.27;65.46;99810.28;231670;205;153417;-59
2024/01/24 01:37:16;;;;;;;18.00;7.80;;;;;;;4.15;65.42;99792.85;231591;205;138480;-57
2024/01/24 01:42:19;;;;;;;20.20;7.80;;;;;;;4.05;65.57;99774.83;231671;205;137337;-58
2024/01/24 01:47:22;;;;;;;18.20;8.20;;;;;;;3.92;65.70;99766.70;231669;198;153425;-58
2024/01/24 01:52:25;;;;;;;16.50;7.80;;;;;;;3.80;66.00;99751.18;231668;198;138671;-58
2024/01/24 01:57:28;;;;;;;20.20;8.60;;;;;;;3.69;66.28;99734.40;231701;197;138385;-59
2024/01/24 02:02:31;;;;;;;18.90;8.10;;;;;;;3.63;66.46;99719.28;231643;198;153805;-59
2024/01/24 02:07:35;;;;;;;18.70;7.50;;;;;;;3.60;66.53;99708.13;231604;205;138489;-58
2024/01/24 02:12:38;;;;;;;17.80;7.60;;;;;;;3.58;66.74;99693.09;231652;203;138374;-57
2024/01/24 02:17:42;;;;;;;18.10;7.30;;;;;;;3.56;66.66;99674.17;231699;205;153199;-58
2024/01/24 02:22:45;;;;;;;19.40;8.00;;;;;;;3.52;66.57;99659.88;231672;197;138071;-59
2024/01/24 02:27:48;;;;;;;15.50;7.00;;;;;;;3.44;66.68;99645.67;231641;198;141014;-58
2024/01/24 02:32:51;;;;;;;15.20;6.90;;;;;;;3.38;66.66;99638.11;231573;198;153154;-58
2024/01/24 02:37:54;;;;;;;14.60;6.90;;;;;;;3.32;66.89;99633.85;231727;198;137124;-58
2024/01/24 02:42:57;;;;;;;15.90;7.30;;;;;;;3.32;66.96;99622.80;231669;205;138611;-59
2024/01/24 02:48:01;;;;;;;16.30;7.10;;;;;;;3.31;67.07;99607.95;231671;198;153838;-58
2024/01/24 02:53:04;;;;;;;13.50;6.00;;;;;;;3.28;67.38;99587.66;231605;198;138443;-57
2024/01/24 02:58:07;;;;;;;11.50;5.00;;;;;;;3.40;67.15;99579.48;231632;198;137880;-57
2024/01/24 03:03:10;;;;;;;10.80;4.10;;;;;;;3.56;66.75;99561.03;231569;198;153642;-57
2024/01/24 03:08:14;;;;;;;10.80;4.60;;;;;;;3.84;66.14;99538.36;231607;198;138476;-58
2024/01/24 03:13:18;;;;;;;9.70;4.50;;;;;;;4.14;65.11;99526.33;231659;198;138552;-59
2024/01/24 03:18:23;;;;;;;10.00;4.70;;;;;;;4.36;64.00;99511.63;231612;198;153078;-58
2024/01/24 03:23:28;;;;;;;10.20;4.10;;;;;;;4.51;63.36;99493.63;231780;197;138856;-58
2024/01/24 03:28:31;;;;;;;7.90;3.60;;;;;;;4.59;62.54;99489.86;231654;198;137836;-58
2024/01/24 03:33:36;;;;;;;8.80;3.80;;;;;;;4.68;62.00;99489.77;231598;203;153250;-59
2024/01/24 03:38:39;;;;;;;10.70;3.90;;;;;;;4.70;61.61;99482.48;231587;197;138388;-57
2024/01/24 03:43:43;;;;;;;8.20;3.40;;;;;;;4.69;61.72;99475.87;231838;205;137865;-59
2024/01/24 03:48:46;;;;;;;8.60;3.70;;;;;;;4.69;61.61;99463.88;231648;198;154326;-59
2024/01/24 03:53:50;;;;;;;10.10;3.80;;;;;;;4.63;62.35;99454.59;231779;202;139051;-59
2024/01/24 03:58:53;;;;;;;8.30;3.60;;;;;;;4.56;62.62;99444.80;231605;199;138264;-59
2024/01/24 04:03:56;;;;;;;9.10;3.60;;;;;;;4.58;62.05;99408.70;231645;202;154404;-60
2024/01/24 04:08:59;;;;;;;8.10;3.30;;;;;;;4.71;61.25;99390.38;231643;198;137359;-58
2024/01/24 04:14:05;;;;;;;9.60;3.30;;;;;;;4.82;60.82;99382.64;231651;205;140777;-59
2024/01/24 04:19:08;;;;;;;10.80;3.90;;;;;;;4.91;60.71;99383.02;231578;203;153993;-59
2024/01/24 04:24:11;;;;;;;10.60;3.30;;;;;;;5.00;60.78;99380.63;231710;203;138241;-59
2024/01/24 04:29:16;;;;;;;8.30;3.00;;;;;;;5.16;59.93;99354.77;231735;199;138443;-60
2024/01/24 04:34:19;;;;;;;7.20;2.70;;;;;;;5.30;59.88;99326.63;231611;201;153158;-60
2024/01/24 04:39:22;;;;;;;9.40;2.80;;;;;;;5.41;59.22;99332.92;231656;202;138140;-60
2024/01/24 04:44:25;;;;;;;10.70;3.20;;;;;;;5.48;59.22;99313.33;231633;198;138102;-59
2024/01/24 04:49:29;;;;;;;10.60;3.50;;;;;;;5.54;59.26;99318.19;231685;197;154056;-59
2024/01/24 04:54:46;;;;;;;11.40;4.00;;;;;;;5.56;59.45;99322.36;231635;197;139541;-59
2024/01/24 04:59:50;;;;;;;12.40;3.80;;;;;;;5.52;60.15;99320.20;231829;198;138400;-60
2024/01/24 05:04:58;;;;;;;9.80;4.10;;;;;;;5.46;60.79;99315.34;231685;198;154687;-58
2024/01/24 05:10:03;;;;;;;9.90;4.10;;;;;;;5.37;61.01;99298.39;231681;198;138447;-57
2024/01/24 05:15:08;;;;;;;9.80;4.20;;;;;;;5.29;61.28;99294.64;231652;205;138819;-59
2024/01/24 05:20:11;;;;;;;10.50;4.80;;;;;;;5.23;61.44;99289.59;231535;203;153881;-58
2024/01/24 05:25:14;;;;;;;9.30;4.10;;;;;;;5.21;61.85;99282.10;231624;202;138572;-59
2024/01/24 05:30:17;;;;;;;10.50;4.20;;;;;;;5.16;62.04;99266.13;231669;197;138807;-59
2024/01/24 05:35:38;;;;;;;9.10;4.20;;;;;;;5.14;61.89;99260.55;231742;198;153054;-59
2024/01/24 05:40:41;;;;;;;8.20;4.30;;;;;;;5.13;61.93;99248.81;231578;202;138517;-59
2024/01/24 05:45:49;;;;;;;10.80;4.30;;;;;;;5.12;62.15;99230.71;231595;198;138404;-59
2024/01/24 05:50:52;;;;;;;8.50;3.70;;;;;;;5.16;62.15;99215.45;231625;205;153933;-58
2024/01/24 05:55:56;;;;;;;7.10;3.20;;;;;;;5.26;61.31;99199.63;231615;198;138020;-60
2024/01/24 06:00:59;;;;;;;8.60;2.90;;;;;;;5.42;60.47;99191.77;231717;199;137730;-58
2024/01/24 06:06:03;;;;;;;11.20;3.40;;;;;;;5.58;59.93;99181.47;231773;198;152356;-59
2024/01/24 06:11:07;;;;;;;218.70;170.40;;;;;;;5.77;61.36;99166.48;231634;205;139894;-59
2024/01/24 06:16:10;;;;;;;13.60;4.90;;;;;;;6.00;59.38;99147.75;231602;202;137468;-58
2024/01/24 06:21:13;;;;;;;505.20;369.80;;;;;;;6.14;59.07;99135.22;231642;198;153676;-58
2024/01/24 06:26:17;;;;;;;32.10;16.30;;;;;;;6.26;59.09;99120.45;231632;198;139845;-59
2024/01/24 06:31:20;;;;;;;9.90;3.40;;;;;;;6.32;58.29;99111.02;231661;197;138161;-60
2024/01/24 06:36:23;;;;;;;11.50;3.70;;;;;;;6.38;58.51;99103.34;231598;202;153794;-60
2024/01/24 06:41:27;;;;;;;8.90;3.10;;;;;;;6.46;58.73;99092.96;231638;198;138170;-59
2024/01/24 06:46:32;;;;;;;9.60;2.70;;;;;;;6.55;59.51;99070.52;231521;198;138344;-61
2024/01/24 06:51:39;;;;;;;11.50;2.90;;;;;;;6.66;60.07;99051.17;231547;199;153389;-61
2024/01/24 06:56:43;;;;;;;7.90;2.60;;;;;;;6.76;61.09;99048.21;231562;198;138243;-59
2024/01/24 07:01:47;;;;;;;14.10;5.00;;;;;;;6.86;62.14;99048.13;231553;199;138119;-59
2024/01/24 07:06:50;;;;;;;10.90;3.00;;;;;;;6.96;62.22;99033.18;231519;198;154207;-59
2024/01/24 07:11:53;;;;;;;8.50;2.60;;;;;;;6.93;62.10;99011.79;231647;199;138840;-60
2024/01/24 07:16:57;;;;;;;11.90;3.00;;;;;;;6.91;62.56;98996.77;231580;203;138245;-58
2024/01/24 07:22:00;;;;;;;8.40;2.60;;;;;;;6.89;63.13;98995.23;231436;199;153972;-59
2024/01/24 07:27:06;;;;;;;8.80;2.60;;;;;;;6.92;63.58;98988.41;231484;205;138335;-59
2024/01/24 07:32:09;;;;;;;11.60;3.30;;;;;;;6.95;63.97;98969.72;231550;199;139004;-58
2024/01/24 07:37:13;;;;;;;23.20;13.70;;;;;;;6.98;64.30;98956.69;231621;199;153574;-56
2024/01/24 07:42:26;;;;;;;6.70;2.60;;;;;;;7.06;64.63;98938.50;231546;197;138022;-60
2024/01/24 07:47:30;;;;;;;9.20;2.70;;;;;;;7.09;64.69;98936.39;231664;205;137670;-58
2024/01/24 07:52:33;;;;;;;6.20;2.30;;;;;;;7.13;64.92;98950.84;231662;202;153322;-58
2024/01/24 07:57:44;;;;;;;5.00;2.20;;;;;;;7.25;65.14;98952.18;231571;203;138367;-59
2024/01/24 08:02:48;;;;;;;6.80;2.50;;;;;;;7.43;65.21;98931.36;231231;198;139207;-58
2024/01/24 08:07:53;;;;;;;;;;;;;;;7.64;64.98;98887.35;231554;202;153408;-59
2024/01/24 08:12:57;;;;;;;5.30;2.00;;;;;;;7.78;64.83;98874.79;231659;197;138476;-58
2024/01/24 08:18:00;;;;;;;3.20;1.30;;;;;;;7.83;64.63;98876.81;231794;198;138195;-58
2024/01/24 08:23:03;;;;;;;3.60;1.20;;;;;;;7.81;64.81;98861.00;231582;198;153403;-59
2024/01/24 08:28:08;;;;;;;1.50;0.80;;;;;;;7.83;65.35;98846.27;231544;205;138446;-58
2024/01/24 08:33:11;;;;;;;2.50;1.10;;;;;;;7.84;65.54;98834.58;231608;198;140186;-57
2024/01/24 08:38:15;;;;;;;4.70;1.20;;;;;;;7.80;65.76;98843.07;231643;197;153160;-59
2024/01/24 08:43:18;;;;;;;1.50;0.90;;;;;;;7.76;66.02;98832.36;231632;198;137515;-59
2024/01/24 08:48:21;;;;;;;4.00;1.30;;;;;;;7.76;66.09;98849.09;231717;205;140979;-57
2024/01/24 08:53:24;;;;;;;3.60;1.50;;;;;;;7.82;65.92;98838.91;231725;199;153894;-58
2024/01/24 08:58:28;;;;;;;4.20;1.10;;;;;;;7.88;66.03;98828.89;231624;202;137938;-58
2024/01/24 09:03:31;;;;;;;2.10;1.20;;;;;;;7.83;66.36;98816.06;231615;197;138603;-58
2024/01/24 09:08:34;;;;;;;2.30;1.10;;;;;;;7.80;66.88;98819.05;231651;203;152950;-59
2024/01/24 09:13:37;;;;;;;3.20;1.20;;;;;;;7.77;67.57;98803.33;231526;198;138491;-58
2024/01/24 09:18:42;;;;;;;5.30;2.40;;;;;;;7.81;68.43;98788.80;231481;198;138408;-59
2024/01/24 09:23:47;;;;;;;2.90;1.50;;;;;;;7.81;68.90;98783.49;231625;200;154803;-58
2024/01/24 09:28:52;;;;;;;1.90;1.20;;;;;;;7.86;69.32;98762.02;231460;202;140162;-59
2024/01/24 09:33:55;;;;;;;3.10;1.10;;;;;;;7.95;69.42;98745.81;231433;198;138308;-59
2024/01/24 09:38:58;;;;;;;3.30;1.50;;;;;;;7.99;69.64;98740.61;231457;198;154001;-59
2024/01/24 09:44:04;;;;;;;4.10;1.40;;;;;;;8.03;69.51;98734.58;231576;201;138702;-58
2024/01/24 09:49:09;;;;;;;2.40;1.10;;;;;;;8.03;69.94;98744.84;231516;205;138915;-59
2024/01/24 09:54:15;;;;;;;1.90;1.00;;;;;;;7.99;70.49;98739.73;231659;198;154523;-59
2024/01/24 09:59:18;;;;;;;2.20;1.10;;;;;;;7.92;71.57;98721.44;231598;199;139113;-58
2024/01/24 10:04:22;;;;;;;1.60;0.80;;;;;;;7.89;72.24;98707.80;231556;198;138662;-59
2024/01/24 10:09:25;;;;;;;2.60;1.00;;;;;;;7.88;72.93;98691.66;231603;198;154282;-59
2024/01/24 10:14:29;;;;;;;2.40;0.90;;;;;;;7.84;73.54;98687.29;231509;199;138621;-59
2024/01/24 10:19:32;;;;;;;1.40;1.10;;;;;;;7.79;73.98;98687.20;231497;202;137670;-58
2024/01/24 10:24:36;;;;;;;3.00;1.00;;;;;;;7.76;74.60;98676.44;231554;198;153153;-59
2024/01/24 10:29:42;;;;;;;1.80;0.90;;;;;;;7.76;74.82;98663.34;231680;199;139167;-58
2024/01/24 10:34:49;;;;;;;1.80;1.00;;;;;;;7.84;74.92;98645.60;231497;203;137812;-59
2024/01/24 10:39:53;;;;;;;12.40;9.70;;;;;;;7.87;75.24;98670.65;231070;198;153104;-58
2024/01/24 10:45:00;;;;;;;4.70;1.70;;;;;;;7.92;75.35;98666.35;231397;205;138408;-56
2024/01/24 10:50:06;;;;;;;1.30;1.10;;;;;;;7.89;75.81;98661.52;231560;198;138957;-58
2024/01/24 10:55:11;;;;;;;1.70;1.40;;;;;;;7.82;76.27;98647.09;231547;202;154139;-58
2024/01/24 11:00:18;;;;;;;4.50;1.20;;;;;;;7.85;76.82;98639.88;231629;198;138120;-58
2024/01/24 11:05:36;;;;;;;2.20;1.30;;;;;;;7.89;76.92;98624.62;231646;198;138228;-60
2024/01/24 11:10:43;;;;;;;2.00;1.40;;;;;;;7.91;76.99;98622.26;231542;202;155111;-57
2024/01/24 11:15:47;;;;;;;2.80;1.40;;;;;;;7.96;77.03;98591.39;231534;198;137495;-58
2024/01/24 11:20:59;;;;;;;2.80;1.50;;;;;;;8.03;76.87;98578.04;231481;198;139997;-57
2024/01/24 11:26:02;;;;;;;1.80;1.30;;;;;;;8.11;76.78;98589.95;231488;198;155076;-57
2024/01/24 11:31:08;;;;;;;2.70;1.50;;;;;;;8.25;76.73;98560.30;231597;205;138568;-58
2024/01/24 11:36:12;;;;;;;4.60;1.50;;;;;;;8.40;76.44;98550.61;231568;198;137895;-57
2024/01/24 11:41:26;;;;;;;2.80;1.40;;;;;;;8.45;76.21;98549.79;231512;198;153219;-58
2024/01/24 11:46:30;;;;;;;2.90;1.30;;;;;;;8.45;76.08;98577.14;231549;198;138949;-58
2024/01/24 11:51:33;;;;;;;2.50;1.30;;;;;;;8.48;76.15;98554.90;231507;198;138742;-58
2024/01/24 11:56:36;;;;;;;4.30;1.70;;;;;;;8.59;75.96;98544.63;231461;198;153487;-58
2024/01/24 12:01:39;;;;;;;8.10;1.50;;;;;;;8.67;75.80;98535.67;231402;205;139122;-58
2024/01/24 12:06:43;;;;;;;3.00;1.30;;;;;;;8.76;75.79;98530.52;231599;205;138830;-59
2024/01/24 12:11:46;;;;;;;4.30;1.70;;;;;;;8.87;75.39;98524.17;231606;198;153143;-59
2024/01/24 12:16:49;;;;;;;6.80;1.70;;;;;;;8.96;75.58;98511.05;231358;198;138208;-59
2024/01/24 12:21:53;;;;;;;2.70;1.70;;;;;;;9.17;76.08;98503.15;231655;202;139516;-58
2024/01/24 12:26:56;;;;;;;6.50;2.10;;;;;;;9.46;75.83;98503.16;231560;198;154388;-58
2024/01/24 12:32:05;;;;;;;2.80;1.80;;;;;;;9.65;75.20;98494.86;231581;197;138223;-58
2024/01/24 12:37:08;;;;;;;2.50;1.80;;;;;;;9.79;74.38;98493.21;231620;202;139566;-59
2024/01/24 12:42:12;;;;;;;3.00;1.70;;;;;;;9.89;74.10;98492.81;231718;198;153098;-59
2024/01/24 12:47:15;;;;;;;3.60;1.40;;;;;;;10.01;73.69;98476.23;231536;198;138332;-58
2024/01/24 12:52:18;;;;;;;2.70;1.30;;;;;;;10.18;73.33;98477.93;231598;204;138769;-59
2024/01/24 12:57:24;;;;;;;5.30;1.70;;;;;;;10.37;72.65;98478.91;231554;198;153336;-59
2024/01/24 13:02:30;;;;;;;2.50;1.40;;;;;;;10.59;72.13;98478.46;231584;198;140250;-58
2024/01/24 13:07:36;;;;;;;2.70;1.60;;;;;;;10.72;71.85;98478.06;231614;205;139583;-58
2024/01/24 13:12:39;;;;;;;;;;;;;;;10.77;71.73;98470.98;231608;205;153786;-57
2024/01/24 13:17:43;;;;;;;3.20;1.50;;;;;;;10.82;71.67;98462.77;231782;205;138526;-58
2024/01/24 13:22:46;;;;;;;3.50;1.40;;;;;;;10.92;71.36;98457.40;231599;198;138713;-59
2024/01/24 13:27:49;;;;;;;2.40;1.50;;;;;;;10.99;70.81;98457.13;231498;202;154059;-59
2024/01/24 13:32:53;;;;;;;2.20;1.70;;;;;;;11.05;70.28;98448.14;231490;199;138434;-58
2024/01/24 13:37:57;;;;;;;4.80;2.10;;;;;;;11.10;69.81;98447.96;231497;198;137040;-58
2024/01/24 13:43:01;;;;;;;2.90;1.70;;;;;;;11.15;69.51;98444.05;231568;197;155636;-58
2024/01/24 13:48:05;;;;;;;5.20;1.70;;;;;;;11.17;69.05;98454.88;231747;197;139247;-56
2024/01/24 13:53:10;;;;;;;4.50;1.80;;;;;;;11.20;68.85;98456.13;231549;198;138637;-56
2024/01/24 13:58:14;;;;;;;5.40;2.00;;;;;;;11.22;68.46;98448.13;231604;198;153762;-56
2024/01/24 14:03:17;;;;;;;4.70;1.70;;;;;;;11.31;67.98;98451.17;231543;198;138176;-57
2024/01/24 14:08:21;;;;;;;3.90;1.80;;;;;;;11.38;67.73;98443.21;231526;198;138635;-57
2024/01/24 14:13:24;;;;;;;6.10;1.80;;;;;;;11.42;67.26;98458.75;231540;198;155428;-56
2024/01/24 14:18:27;;;;;;;3.70;1.70;;;;;;;11.43;66.82;98467.66;231564;198;138715;-56
2024/01/24 14:23:31;;;;;;;2.70;1.40;;;;;;;11.37;67.60;98492.13;231615;205;138694;-56
2024/01/24 14:28:34;;;;;;;2.10;1.40;;;;;;;11.23;69.20;98526.05;231455;198;153193;-56
2024/01/24 14:33:37;;;;;;;3.30;1.60;;;;;;;11.12;70.06;98556.13;231345;198;138200;-55
2024/01/24 14:38:41;;;;;;;3.20;2.00;;;;;;;11.04;70.86;98606.93;231452;202;138402;-56
2024/01/24 14:43:45;;;;;;;3.00;1.40;;;;;;;10.89;71.73;98629.96;231523;199;154787;-56
2024/01/24 14:48:48;;;;;;;3.00;1.50;;;;;;;10.66;71.87;98620.55;231475;203;139394;-57
2024/01/24 14:53:52;;;;;;;4.20;1.60;;;;;;;10.39;70.81;98626.84;231673;198;138598;-57
2024/01/24 14:58:55;;;;;;;2.80;1.50;;;;;;;10.23;70.59;98605.58;231519;198;155356;-57
2024/01/24 15:03:58;;;;;;;5.90;2.00;;;;;;;10.03;70.78;98601.96;231462;199;138701;-56
2024/01/24 15:09:06;;;;;;;4.30;1.80;;;;;;;9.85;70.99;98568.99;231498;205;137862;-55
2024/01/24 15:14:10;;;;;;;3.00;1.30;;;;;;;9.72;70.41;98565.91;231513;198;154603;-57
2024/01/24 15:19:13;;;;;;;5.50;1.90;;;;;;;9.68;69.83;98560.18;231558;206;138012;-57
2024/01/24 15:24:16;;;;;;;5.50;1.90;;;;;;;9.72;69.49;98540.96;231736;199;139846;-56
2024/01/24 15:29:19;;;;;;;8.40;2.20;;;;;;;9.76;69.13;98581.96;231547;199;154529;-56
2024/01/24 15:34:23;;;;;;;5.30;2.00;;;;;;;9.77;68.82;98595.50;231551;200;137781;-58
2024/01/24 15:39:26;;;;;;;9.70;2.30;;;;;;;9.71;68.70;98610.27;231579;197;137864;-56
2024/01/24 15:44:30;;;;;;;7.80;2.10;;;;;;;9.66;68.72;98633.98;231523;202;153239;-55
2024/01/24 15:49:34;;;;;;;5.50;2.00;;;;;;;9.59;68.68;98641.70;231585;198;137236;-56
2024/01/24 15:54:41;;;;;;;6.40;2.40;;;;;;;9.57;68.75;98644.82;231649;205;138478;-57
2024/01/24 15:59:44;;;;;;;6.70;2.10;;;;;;;9.62;68.50;98638.30;231443;198;154659;-56
2024/01/24 16:04:48;;;;;;;7.40;2.30;;;;;;;9.66;68.40;98629.70;231516;198;137525;-56
2024/01/24 16:09:53;;;;;;;6.30;2.30;;;;;;;9.67;68.24;98625.08;231489;203;138407;-57
2024/01/24 16:14:57;;;;;;;7.10;2.30;;;;;;;9.68;68.05;98625.87;231482;202;153949;-55
2024/01/24 16:20:01;;;;;;;7.20;2.70;;;;;;;9.68;67.82;98613.80;231435;198;138584;-57
2024/01/24 16:25:05;;;;;;;7.20;3.10;;;;;;;9.64;67.74;98619.40;231598;198;138872;-57
2024/01/24 16:30:09;;;;;;;9.90;3.80;;;;;;;9.57;68.02;98626.75;231571;200;153336;-55
2024/01/24 16:35:13;;;;;;;9.60;3.20;;;;;;;9.52;68.39;98621.59;231443;199;137302;-57
2024/01/24 16:40:17;;;;;;;7.00;2.10;;;;;;;9.52;68.76;98631.90;231533;206;138441;-57
2024/01/24 16:45:21;;;;;;;10.10;3.80;;;;;;;9.53;69.03;98638.89;231500;203;153971;-55
2024/01/24 16:50:24;;;;;;;8.10;3.40;;;;;;;9.55;69.18;98638.93;231649;199;138413;-57
2024/01/24 16:55:27;;;;;;;8.10;4.00;;;;;;;9.51;69.59;98638.33;231651;199;139846;-56
2024/01/24 17:00:32;;;;;;;8.30;4.10;;;;;;;9.48;69.90;98654.59;231030;198;153122;-55
2024/01/24 17:05:36;;;;;;;8.30;3.90;;;;;;;9.44;70.37;98658.05;231538;199;138287;-57
2024/01/24 17:10:39;;;;;;;9.70;4.60;;;;;;;9.39;70.75;98653.41;231522;202;138190;-56
2024/01/24 17:15:42;;;;;;;9.30;4.00;;;;;;;9.39;71.07;98654.30;231584;206;153193;-56
2024/01/24 17:20:46;;;;;;;10.60;4.50;;;;;;;9.47;71.27;98659.13;231487;203;138253;-53
2024/01/24 17:25:49;;;;;;;9.50;4.50;;;;;;;9.56;71.26;98662.60;231466;202;138444;-56
2024/01/24 17:30:52;;;;;;;10.80;4.80;;;;;;;9.62;71.26;98669.46;231494;198;154133;-56
2024/01/24 17:35:56;;;;;;;9.50;4.10;;;;;;;9.56;71.53;98665.41;231585;202;137338;-57
2024/01/24 17:41:00;;;;;;;9.40;4.80;;;;;;;9.45;71.61;98667.89;231605;198;137640;-55
2024/01/24 17:46:03;;;;;;;9.80;4.90;;;;;;;9.42;71.59;98663.48;231568;198;154095;-57
2024/01/24 17:51:07;;;;;;;10.70;5.10;;;;;;;9.45;71.28;98664.36;231633;203;138206;-56
2024/01/24 17:56:11;;;;;;;9.80;5.00;;;;;;;9.53;71.03;98669.55;231765;198;137613;-56
2024/01/24 18:01:14;;;;;;;11.80;5.30;;;;;;;9.59;70.61;98680.49;231529;197;155094;-55
2024/01/24 18:06:17;;;;;;;11.60;4.80;;;;;;;9.66;70.17;98685.66;231646;198;139525;-56
2024/01/24 18:11:21;;;;;;;11.40;4.90;;;;;;;9.69;69.56;98682.28;231558;203;138165;-56
2024/01/24 18:16:25;;;;;;;10.30;5.00;;;;;;;9.65;68.92;98685.02;231512;198;152402;-54
2024/01/24 18:21:29;;;;;;;11.60;4.60;;;;;;;9.63;68.61;98676.85;231370;198;140922;-56
2024/01/24 18:26:32;;;;;;;9.80;5.00;;;;;;;9.57;68.37;98677.78;231532;201;138371;-56
2024/01/24 18:31:36;;;;;;;9.40;5.00;;;;;;;9.56;68.18;98673.02;231468;198;154112;-56
2024/01/24 18:36:40;;;;;;;9.60;4.70;;;;;;;9.61;67.64;98668.30;231519;198;138436;-54
2024/01/24 18:41:44;;;;;;;10.60;4.30;;;;;;;9.64;67.18;98664.39;231669;205;139596;-55
2024/01/24 18:46:47;;;;;;;11.90;4.70;;;;;;;9.61;66.88;98666.70;231526;197;154994;-53
2024/01/24 18:51:51;;;;;;;10.80;4.80;;;;;;;9.54;66.26;98662.02;231455;198;139770;-51
2024/01/24 18:56:55;;;;;;;9.60;4.00;;;;;;;9.52;65.50;98663.24;231621;198;139840;-55
2024/01/24 19:01:58;;;;;;;9.50;3.80;;;;;;;9.48;65.14;98663.32;231561;198;153955;-55
2024/01/24 19:07:02;;;;;;;9.80;3.90;;;;;;;9.51;64.50;98667.73;231466;205;137692;-54
2024/01/24 19:12:08;;;;;;;39.70;27.00;;;;;;;9.54;64.32;98663.83;231673;198;139209;-57
2024/01/24 19:17:11;;;;;;;17.70;10.40;;;;;;;9.61;64.30;98673.13;231446;198;154851;-55
2024/01/24 19:22:14;;;;;;;10.90;4.40;;;;;;;9.73;63.86;98672.83;231461;199;138833;-56
2024/01/24 19:27:18;;;;;;;13.90;5.20;;;;;;;9.78;62.98;98671.48;231537;198;139816;-56
2024/01/24 19:32:21;;;;;;;10.60;4.80;;;;;;;9.73;63.05;98672.31;231501;198;153411;-55
2024/01/24 19:37:25;;;;;;;18.00;5.20;;;;;;;9.65;62.91;98673.36;231532;198;139195;-57
2024/01/24 19:42:29;;;;;;;12.00;4.70;;;;;;;9.58;62.62;98675.40;231582;198;137684;-56
2024/01/24 19:47:33;;;;;;;16.60;5.40;;;;;;;9.51;62.58;98680.45;231643;202;153433;-57
2024/01/24 19:52:38;;;;;;;13.20;5.20;;;;;;;9.51;62.70;98688.10;231479;199;138896;-59
2024/01/24 19:57:41;;;;;;;13.40;4.50;;;;;;;9.48;62.91;98690.58;231603;205;139027;-57
2024/01/24 20:02:46;;;;;;;11.60;4.80;;;;;;;9.46;62.73;98685.04;231515;205;153201;-56
2024/01/24 20:07:49;;;;;;;12.90;4.90;;;;;;;9.42;63.04;98677.29;231509;202;138582;-56
2024/01/24 20:12:52;;;;;;;29.00;15.00;;;;;;;9.46;62.89;98672.81;231548;198;138479;-55
2024/01/24 20:17:55;;;;;;;12.20;5.10;;;;;;;9.54;61.89;98672.30;231604;205;153492;-56
2024/01/24 20:22:59;;;;;;;12.20;4.20;;;;;;;9.50;61.20;98674.32;231553;198;139828;-57
2024/01/24 20:28:02;;;;;;;9.60;4.20;;;;;;;9.46;60.84;98677.39;231590;205;138582;-54
2024/01/24 20:33:06;;;;;;;11.00;4.50;;;;;;;9.45;60.74;98671.27;231542;205;153199;-56
2024/01/24 20:38:09;;;;;;;8.10;3.40;;;;;;;9.41;60.36;98671.51;231520;203;140274;-57
2024/01/24 20:43:12;;;;;;;125.00;80.20;;;;;;;9.42;60.68;98662.78;231566;198;138118;-57
2024/01/24 20:48:16;;;;;;;15.60;5.30;;;;;;;9.54;59.91;98651.58;231735;198;154435;-55
2024/01/24 20:53:19;;;;;;;15.90;4.40;;;;;;;9.54;59.43;98659.73;231559;205;137967;-56
2024/01/24 20:58:23;;;;;;;12.40;4.00;;;;;;;9.47;58.89;98661.24;231598;202;138862;-55
2024/01/24 21:03:26;;;;;;;11.50;3.80;;;;;;;9.49;59.05;98668.36;231523;198;154018;-56
2024/01/24 21:08:30;;;;;;;12.60;3.90;;;;;;;9.48;58.97;98673.55;231519;203;137709;-56
2024/01/24 21:13:33;;;;;;;7.20;2.90;;;;;;;9.45;59.27;98674.96;231590;198;140317;-55
2024/01/24 21:18:36;;;;;;;10.10;4.10;;;;;;;9.44;59.28;98680.89;231522;198;153279;-55
2024/01/24 21:23:41;;;;;;;8.70;3.40;;;;;;;9.43;59.22;98684.70;231577;198;139985;-53
2024/01/24 21:28:44;;;;;;;10.30;3.20;;;;;;;9.39;59.40;98693.98;231611;198;138756;-56
2024/01/24 21:33:48;;;;;;;10.90;3.60;;;;;;;9.39;59.64;98690.42;231546;206;155233;-53
2024/01/24 21:38:51;;;;;;;13.40;3.30;;;;;;;9.37;59.67;98691.59;231507;199;144269;-54
2024/01/24 21:43:55;;;;;;;11.30;4.10;;;;;;;9.37;60.02;98697.27;231518;203;137838;-56
2024/01/24 21:48:58;;;;;;;14.90;5.80;;;;;;;9.39;60.57;98697.50;231509;198;154187;-56
2024/01/24 21:54:01;;;;;;;11.90;3.90;;;;;;;9.40;60.04;98680.80;231576;203;138196;-55
2024/01/24 21:59:05;;;;;;;11.50;3.60;;;;;;;9.37;59.93;98684.34;231593;198;139491;-55
2024/01/24 22:04:09;;;;;;;13.40;3.50;;;;;;;9.33;60.28;98679.86;231689;199;153344;-56
2024/01/24 22:09:13;;;;;;;14.40;4.00;;;;;;;9.26;60.55;98685.02;231489;198;137983;-55
2024/01/24 22:14:17;;;;;;;10.40;3.50;;;;;;;9.18;60.92;98691.20;231651;205;142232;-54
2024/01/24 22:19:20;;;;;;;13.30;3.50;;;;;;;9.10;61.73;98706.72;231608;198;154020;-55
2024/01/24 22:24:24;;;;;;;11.30;3.80;;;;;;;9.02;62.32;98704.23;231523;198;138466;-55
2024/01/24 22:29:27;;;;;;;9.40;3.60;;;;;;;8.94;62.54;98714.98;231703;198;137760;-56
2024/01/24 22:34:30;;;;;;;13.50;3.40;;;;;;;8.80;62.65;98703.60;231560;201;154471;-53
2024/01/24 22:39:34;;;;;;;9.70;3.10;;;;;;;8.75;62.86;98699.15;231607;198;138034;-54
2024/01/24 22:44:37;;;;;;;8.60;2.90;;;;;;;8.71;63.16;98703.23;231585;205;138679;-54
2024/01/24 22:49:40;;;;;;;11.00;3.10;;;;;;;8.69;63.22;98704.59;231631;198;154059;-55
2024/01/24 22:54:44;;;;;;;11.80;3.40;;;;;;;8.70;63.32;98701.56;231580;198;141346;-55
2024/01/24 22:59:47;;;;;;;10.30;3.40;;;;;;;8.70;63.16;98691.83;231693;205;139713;-55
2024/01/24 23:04:54;;;;;;;12.10;3.30;;;;;;;8.68;62.75;98702.00;231539;198;153697;-56
2024/01/24 23:09:58;;;;;;;8.50;2.90;;;;;;;8.69;62.94;98700.55;231493;205;137154;-54
2024/01/24 23:15:02;;;;;;;7.60;2.30;;;;;;;8.65;62.46;98695.85;231628;200;139089;-54
2024/01/24 23:20:08;;;;;;;8.00;2.70;;;;;;;8.62;62.12;98696.20;231654;198;153375;-53
2024/01/24 23:25:11;;;;;;;8.90;2.40;;;;;;;8.64;61.84;98691.69;231629;201;138818;-53
2024/01/24 23:30:14;;;;;;;10.20;2.30;;;;;;;8.64;61.46;98686.53;231672;197;138005;-55
2024/01/24 23:35:17;;;;;;;8.20;2.10;;;;;;;8.66;61.12;98687.81;231550;198;154104;-56
2024/01/24 23:40:21;;;;;;;8.40;2.30;;;;;;;8.62;60.74;98684.02;231554;198;139420;-53